Time;durP1;ratioP1;P1;durP2;ratioP2;P2;SDS_P1;SDS_P2;PMS_P1;PMS_P2;Temp;Humidity;BMP_temperature;BMP_pressure;BME280_temperature;BME280_humidity;BME280_pressure;Samples;Min_cycle;Max_cycle;Signal;HPM_P1;HPM_P2
2023/08/02 00:00:22;;;;;;;4.20;3.30;;;;;;;15.26;97.55;99373.62;111254;1209;97652;-65
2023/08/02 00:02:47;;;;;;;11.50;3.90;;;;;;;15.23;97.67;99371.13;111151;1216;139696;-65
2023/08/02 00:05:12;;;;;;;8.00;3.90;;;;;;;15.21;97.78;99369.66;111357;1209;97686;-65
2023/08/02 00:07:37;;;;;;;7.10;3.30;;;;;;;15.19;97.98;99372.21;111308;1207;97718;-65
2023/08/02 00:10:03;;;;;;;6.50;3.20;;;;;;;15.17;97.94;99374.38;111196;1203;138918;-65
2023/08/02 00:12:29;;;;;;;6.70;3.10;;;;;;;15.15;98.04;99373.45;111319;1208;97709;-65
2023/08/02 00:14:54;;;;;;;6.40;3.80;;;;;;;15.13;98.25;99376.84;111184;1203;138998;-65
2023/08/02 00:17:19;;;;;;;6.40;3.50;;;;;;;15.11;98.26;99375.25;111326;1209;98261;-66
2023/08/02 00:19:44;;;;;;;7.00;3.60;;;;;;;15.08;98.35;99376.76;111305;1209;97639;-65
2023/08/02 00:22:10;;;;;;;6.80;3.80;;;;;;;15.06;98.49;99377.30;111161;1202;139429;-65
2023/08/02 00:24:35;;;;;;;6.70;4.10;;;;;;;15.03;98.39;99376.59;111178;1207;97947;-65
2023/08/02 00:27:00;;;;;;;5.40;3.50;;;;;;;15.00;98.40;99378.88;111160;1206;139022;-65
2023/08/02 00:29:25;;;;;;;4.80;3.80;;;;;;;14.95;98.59;99385.56;111284;1209;97596;-65
2023/08/02 00:31:51;;;;;;;10.00;3.80;;;;;;;14.90;98.67;99388.80;111176;1209;97607;-65
2023/08/02 00:34:16;;;;;;;6.70;4.00;;;;;;;14.86;98.74;99388.95;111067;1219;139036;-65
2023/08/02 00:36:41;;;;;;;8.30;4.70;;;;;;;14.84;98.86;99387.90;111240;1203;97594;-65
2023/08/02 00:39:07;;;;;;;6.10;4.00;;;;;;;14.79;99.02;99386.48;111128;1209;139027;-65
2023/08/02 00:41:32;;;;;;;11.40;4.20;;;;;;;14.73;99.04;99386.23;111159;1209;97632;-65
2023/08/02 00:43:57;;;;;;;7.80;4.30;;;;;;;14.70;99.15;99382.17;111122;1205;97566;-65
2023/08/02 00:46:23;;;;;;;7.30;4.00;;;;;;;14.67;99.27;99382.81;111074;1208;138644;-65
2023/08/02 00:48:48;;;;;;;7.90;4.20;;;;;;;14.64;99.35;99388.05;111081;1206;97574;-65
2023/08/02 00:51:15;;;;;;;10.20;4.60;;;;;;;14.62;99.35;99389.29;111005;1208;139491;-65
2023/08/02 00:53:42;;;;;;;7.30;4.30;;;;;;;14.61;99.51;99387.59;111178;1219;97645;-65
2023/08/02 00:56:09;;;;;;;10.80;4.30;;;;;;;14.58;99.59;99388.87;111166;1205;97685;-65
2023/08/02 00:58:34;;;;;;;7.80;4.40;;;;;;;14.58;99.67;99390.36;111030;1218;138551;-65
2023/08/02 01:01:07;;;;;;;9.50;4.80;;;;;;;14.57;99.62;99391.84;111106;1208;97797;-65
2023/08/02 01:03:40;;;;;;;12.90;4.50;;;;;;;14.55;99.71;99400.46;110960;1208;138505;-65
2023/08/02 01:06:13;;;;;;;10.10;3.80;;;;;;;14.53;99.75;99404.38;111137;1216;111480;-65
2023/08/02 01:08:42;;;;;;;7.90;5.10;;;;;;;14.50;99.85;99406.05;111278;1209;99490;-65
2023/08/02 01:11:18;;;;;;;10.30;4.80;;;;;;;14.47;99.83;99404.72;111241;1205;107664;-65
2023/08/02 01:13:49;;;;;;;11.40;4.90;;;;;;;14.44;99.89;99405.65;111177;1209;97680;-65
2023/08/02 01:16:15;;;;;;;;;;;;;;;14.42;99.95;99401.69;111172;1209;139111;-65
2023/08/02 01:18:40;;;;;;;10.40;5.10;;;;;;;14.36;99.87;99400.69;111014;1205;97727;-65
2023/08/02 01:21:06;;;;;;;10.70;5.50;;;;;;;14.33;99.98;99398.25;110998;1211;139461;-65
2023/08/02 01:23:31;;;;;;;8.90;4.60;;;;;;;14.30;100.00;99395.58;111081;1214;97584;-65
2023/08/02 01:25:59;;;;;;;12.90;5.10;;;;;;;14.28;100.00;99399.34;111019;1210;97779;-65
2023/08/02 01:28:27;;;;;;;13.80;5.30;;;;;;;14.27;100.00;99399.81;111173;1205;139074;-65
2023/08/02 01:30:54;;;;;;;10.20;5.10;;;;;;;14.25;100.00;99397.95;111268;1205;97612;-65
2023/08/02 01:33:21;;;;;;;12.50;4.70;;;;;;;14.24;100.00;99402.55;111073;1210;138924;-66
2023/08/02 01:35:48;;;;;;;12.70;5.10;;;;;;;14.22;100.00;99406.64;111116;1207;98696;-65
2023/08/02 01:38:14;;;;;;;7.20;4.80;;;;;;;14.21;100.00;99407.79;111143;1207;99413;-65
2023/08/02 01:40:39;;;;;;;13.40;5.10;;;;;;;14.20;100.00;99418.13;111033;1207;139854;-66
2023/08/02 01:43:04;;;;;;;9.40;4.70;;;;;;;14.18;100.00;99419.91;111115;1218;97872;-66
2023/08/02 01:45:29;;;;;;;15.00;5.00;;;;;;;14.15;100.00;99418.01;111122;1210;139072;-66
2023/08/02 01:47:55;;;;;;;8.70;5.20;;;;;;;14.12;100.00;99418.73;111145;1203;97594;-65
2023/08/02 01:50:20;;;;;;;8.60;5.40;;;;;;;14.10;100.00;99418.02;111125;1218;99119;-65
2023/08/02 01:52:48;;;;;;;7.10;4.30;;;;;;;14.07;100.00;99418.99;110909;1206;139333;-65
2023/08/02 01:55:17;;;;;;;6.80;4.70;;;;;;;14.04;100.00;99423.48;111096;1205;98707;-66
2023/08/02 01:57:44;;;;;;;10.60;5.10;;;;;;;14.01;100.00;99421.58;111117;1205;138452;-66
2023/08/02 02:00:10;;;;;;;11.30;5.10;;;;;;;13.98;100.00;99418.90;111080;1209;97640;-65
2023/08/02 02:02:35;;;;;;;10.70;5.80;;;;;;;13.96;100.00;99417.80;111265;1206;97699;-66
2023/08/02 02:05:00;;;;;;;10.30;5.10;;;;;;;13.94;100.00;99416.02;110918;1209;139375;-66
2023/08/02 02:07:25;;;;;;;7.60;4.90;;;;;;;13.92;100.00;99422.60;110994;1214;97673;-65
2023/08/02 02:09:50;;;;;;;11.80;5.10;;;;;;;13.91;100.00;99420.55;111013;1209;139564;-65
2023/08/02 02:12:16;;;;;;;15.80;5.30;;;;;;;13.90;100.00;99422.92;110975;1220;99146;-65
2023/08/02 02:14:41;;;;;;;9.90;5.10;;;;;;;13.89;100.00;99419.77;111000;1209;138963;-66
2023/08/02 02:17:06;;;;;;;8.50;5.40;;;;;;;13.87;100.00;99418.64;110979;1221;99110;-65
2023/08/02 02:19:31;;;;;;;6.50;5.00;;;;;;;13.86;100.00;99419.47;111087;1208;97797;-65
2023/08/02 02:21:56;;;;;;;11.90;5.60;;;;;;;13.85;100.00;99415.45;110869;1208;140491;-66
2023/08/02 02:24:22;;;;;;;9.30;5.50;;;;;;;13.84;100.00;99420.73;111013;1205;97611;-65
2023/08/02 02:26:47;;;;;;;10.40;5.10;;;;;;;13.83;100.00;99422.77;111032;1208;139671;-66
2023/08/02 02:29:12;;;;;;;9.20;4.60;;;;;;;13.82;100.00;99427.17;110885;1205;97667;-66
2023/08/02 02:31:37;;;;;;;8.60;5.60;;;;;;;13.82;100.00;99427.19;111076;1205;97638;-65
2023/08/02 02:34:03;;;;;;;8.50;4.90;;;;;;;13.81;100.00;99426.73;110723;1209;139362;-66
2023/08/02 02:36:28;;;;;;;5.90;4.40;;;;;;;13.81;100.00;99427.98;111015;1209;97713;-65
2023/08/02 02:38:53;;;;;;;10.70;4.50;;;;;;;13.80;100.00;99426.79;110817;1205;138031;-70
2023/08/02 02:41:18;;;;;;;10.20;4.90;;;;;;;13.79;100.00;99427.40;110966;1218;98846;-66
2023/08/02 02:43:44;;;;;;;7.80;4.40;;;;;;;13.79;100.00;99423.48;111108;1209;98823;-65
2023/08/02 02:46:09;;;;;;;8.60;4.60;;;;;;;13.78;100.00;99425.83;110910;1203;139043;-66
2023/08/02 02:48:34;;;;;;;6.10;3.50;;;;;;;13.77;100.00;99426.85;111020;1211;96593;-66
2023/08/02 02:50:59;;;;;;;14.40;4.70;;;;;;;13.75;100.00;99433.23;110889;1209;139026;-66
2023/08/02 02:53:25;;;;;;;10.50;4.10;;;;;;;13.73;100.00;99439.33;111065;1209;97665;-66
2023/08/02 02:55:51;;;;;;;8.20;4.20;;;;;;;13.71;100.00;99447.20;111072;1211;96462;-66
2023/08/02 02:58:17;;;;;;;6.00;4.40;;;;;;;13.69;100.00;99443.05;110841;1210;139996;-66
2023/08/02 03:00:42;;;;;;;11.20;3.90;;;;;;;13.67;100.00;99439.27;111543;1208;96876;-65
2023/08/02 03:03:08;;;;;;;8.80;4.20;;;;;;;13.65;100.00;99439.56;110951;1218;138984;-65
2023/08/02 03:05:33;;;;;;;6.00;3.80;;;;;;;13.64;100.00;99438.55;111036;1209;97595;-66
2023/08/02 03:07:58;;;;;;;9.20;4.10;;;;;;;13.63;100.00;99443.66;111163;1212;97575;-66
2023/08/02 03:10:24;;;;;;;6.60;3.90;;;;;;;13.62;100.00;99441.79;111011;1209;139178;-65
2023/08/02 03:12:49;;;;;;;14.20;4.20;;;;;;;13.61;100.00;99441.30;111198;1206;98058;-65
2023/08/02 03:15:14;;;;;;;7.20;4.50;;;;;;;13.61;100.00;99445.09;110890;1209;138981;-65
2023/08/02 03:17:40;;;;;;;6.30;4.10;;;;;;;13.60;100.00;99447.67;111156;1206;97571;-65
2023/08/02 03:20:06;;;;;;;9.80;3.80;;;;;;;13.58;100.00;99451.41;111128;1206;97793;-66
2023/08/02 03:22:33;;;;;;;8.70;4.60;;;;;;;13.57;100.00;99453.30;111071;1208;138499;-65
2023/08/02 03:24:58;;;;;;;9.40;4.40;;;;;;;13.56;100.00;99452.09;111079;1209;97994;-65
2023/08/02 03:27:23;;;;;;;8.40;3.80;;;;;;;13.55;100.00;99453.80;111093;1209;138571;-65
2023/08/02 03:29:48;;;;;;;6.00;3.70;;;;;;;13.54;100.00;99455.67;111090;1208;97599;-66
2023/08/02 03:32:13;;;;;;;9.00;4.50;;;;;;;13.54;100.00;99458.93;111122;1221;97572;-65
2023/08/02 03:34:39;;;;;;;6.30;4.30;;;;;;;13.54;100.00;99457.31;111017;1208;139268;-65
2023/08/02 03:37:05;;;;;;;12.20;4.70;;;;;;;13.53;100.00;99464.70;111011;1208;97687;-65
2023/08/02 03:39:30;;;;;;;6.10;4.20;;;;;;;13.53;100.00;99463.46;111085;1209;139255;-66
2023/08/02 03:41:55;;;;;;;6.00;4.20;;;;;;;13.54;100.00;99460.92;111120;1206;98152;-65
2023/08/02 03:44:20;;;;;;;6.80;4.40;;;;;;;13.54;100.00;99455.84;111092;1209;97641;-65
2023/08/02 03:46:46;;;;;;;10.50;4.00;;;;;;;13.55;100.00;99453.45;110954;1206;138464;-64
2023/08/02 03:49:11;;;;;;;7.00;4.40;;;;;;;13.56;100.00;99455.84;111120;1208;97694;-64
2023/08/02 03:51:36;;;;;;;8.40;4.20;;;;;;;13.57;100.00;99458.83;110987;1207;138603;-64
2023/08/02 03:54:03;;;;;;;7.10;4.30;;;;;;;13.58;100.00;99463.04;111134;1209;97719;-64
2023/08/02 03:56:29;;;;;;;9.20;4.80;;;;;;;13.60;100.00;99464.55;111107;1209;97554;-64
2023/08/02 03:58:54;;;;;;;8.70;4.10;;;;;;;13.62;100.00;99463.14;111004;1206;138492;-64
2023/08/02 04:01:19;;;;;;;6.60;3.90;;;;;;;13.64;100.00;99465.35;111135;1206;98109;-64
2023/08/02 04:03:45;;;;;;;5.20;3.60;;;;;;;13.64;100.00;99461.73;110995;1208;138502;-64
2023/08/02 04:06:10;;;;;;;7.60;4.20;;;;;;;13.66;100.00;99466.11;111031;1206;97370;-66
2023/08/02 04:08:35;;;;;;;8.10;4.00;;;;;;;13.67;100.00;99464.02;111071;1208;97700;-66
2023/08/02 04:11:04;;;;;;;5.60;3.50;;;;;;;13.70;100.00;99461.34;111000;1203;138925;-64
2023/08/02 04:13:30;;;;;;;10.80;3.60;;;;;;;13.73;100.00;99465.73;111079;1209;97659;-64
2023/08/02 04:15:55;;;;;;;4.80;3.20;;;;;;;13.76;100.00;99464.65;110930;1206;139238;-66
2023/08/02 04:18:20;;;;;;;8.20;3.80;;;;;;;13.79;100.00;99464.39;111155;1209;97764;-64
2023/08/02 04:20:45;;;;;;;8.00;3.70;;;;;;;13.82;100.00;99461.66;110854;1209;138619;-64
2023/08/02 04:23:11;;;;;;;7.40;3.80;;;;;;;13.85;100.00;99460.65;111055;1208;97827;-64
2023/08/02 04:25:36;;;;;;;7.10;3.80;;;;;;;13.89;100.00;99455.18;111044;1209;97616;-66
2023/08/02 04:28:01;;;;;;;7.60;4.10;;;;;;;13.93;100.00;99455.77;110895;1208;138376;-66
2023/08/02 04:30:26;;;;;;;10.70;4.20;;;;;;;13.96;100.00;99456.38;111076;1206;98301;-64
2023/08/02 04:32:53;;;;;;;9.00;3.80;;;;;;;14.00;100.00;99455.56;111022;1208;138829;-64
2023/08/02 04:35:19;;;;;;;8.10;3.80;;;;;;;14.05;100.00;99458.13;111098;1208;97684;-64
2023/08/02 04:37:45;;;;;;;7.80;3.40;;;;;;;14.08;100.00;99458.92;111124;1209;96468;-64
2023/08/02 04:40:12;;;;;;;5.40;3.60;;;;;;;14.12;100.00;99462.73;110933;1208;139069;-64
2023/08/02 04:42:37;;;;;;;6.00;3.00;;;;;;;14.17;100.00;99466.35;111275;1206;97695;-64
2023/08/02 04:45:03;;;;;;;6.10;3.60;;;;;;;14.20;100.00;99470.40;110932;1209;138851;-64
2023/08/02 04:47:28;;;;;;;8.20;3.20;;;;;;;14.25;100.00;99470.40;111065;1205;107801;-64
2023/08/02 04:49:57;;;;;;;6.80;3.80;;;;;;;14.29;100.00;99472.41;110965;1208;97575;-64
2023/08/02 04:52:22;;;;;;;7.60;3.20;;;;;;;14.33;100.00;99469.59;111023;1206;138654;-64
2023/08/02 04:54:47;;;;;;;13.50;4.00;;;;;;;14.37;100.00;99475.52;111095;1209;97719;-64
2023/08/02 04:57:12;;;;;;;4.90;3.20;;;;;;;14.42;100.00;99478.04;110905;1209;139412;-64
2023/08/02 04:59:38;;;;;;;5.20;3.10;;;;;;;14.47;100.00;99479.67;111041;1205;97624;-64
2023/08/02 05:02:04;;;;;;;8.20;3.50;;;;;;;14.51;100.00;99481.30;110897;1208;111161;-67
2023/08/02 05:04:29;;;;;;;9.30;3.10;;;;;;;14.54;100.00;99476.23;110813;1214;140572;-64
2023/08/02 05:06:54;;;;;;;7.20;3.90;;;;;;;14.57;100.00;99477.38;111032;1208;97612;-64
2023/08/02 05:09:20;;;;;;;8.40;3.90;;;;;;;14.62;100.00;99477.05;110913;1208;139738;-64
2023/08/02 05:11:45;;;;;;;5.30;3.10;;;;;;;14.66;100.00;99480.20;111093;1209;97539;-65
2023/08/02 05:14:12;;;;;;;5.90;2.90;;;;;;;14.70;100.00;99485.05;111079;1208;97702;-65
2023/08/02 05:16:37;;;;;;;4.50;3.20;;;;;;;14.74;100.00;99477.02;110910;1212;138677;-65
2023/08/02 05:19:03;;;;;;;4.50;3.40;;;;;;;14.78;100.00;99484.60;111057;1206;97596;-64
2023/08/02 05:21:29;;;;;;;6.00;4.20;;;;;;;14.81;100.00;99477.31;111002;1203;140306;-64
2023/08/02 05:23:55;;;;;;;5.10;2.70;;;;;;;14.86;100.00;99479.07;111050;1209;107385;-64
2023/08/02 05:26:21;;;;;;;9.40;3.40;;;;;;;14.92;100.00;99479.85;110993;1209;96646;-64
2023/08/02 05:28:46;;;;;;;12.40;4.00;;;;;;;14.98;99.97;99482.11;111007;1208;139206;-64
2023/08/02 05:31:13;;;;;;;6.40;3.60;;;;;;;15.03;99.98;99485.08;110937;1206;97534;-66
2023/08/02 05:33:40;;;;;;;5.40;3.10;;;;;;;15.11;99.99;99485.20;111102;1209;139417;-65
2023/08/02 05:36:05;;;;;;;14.10;3.30;;;;;;;15.19;99.96;99487.60;111137;1205;97609;-65
2023/08/02 05:38:33;;;;;;;9.70;3.80;;;;;;;15.24;99.97;99488.94;111038;1208;99792;-66
2023/08/02 05:41:04;;;;;;;7.80;3.00;;;;;;;15.28;99.88;99487.02;110921;1206;139429;-66
2023/08/02 05:43:30;;;;;;;7.10;3.50;;;;;;;15.32;99.59;99491.58;111231;1206;108527;-66
2023/08/02 05:45:57;;;;;;;8.10;3.00;;;;;;;15.37;99.60;99494.58;110938;1205;140294;-65
2023/08/02 05:48:22;;;;;;;9.20;3.40;;;;;;;15.43;99.39;99497.34;111118;1208;97899;-65
2023/08/02 05:50:47;;;;;;;7.70;3.10;;;;;;;15.49;99.33;99498.46;111045;1206;140053;-67
2023/08/02 05:53:13;;;;;;;8.00;2.90;;;;;;;15.54;99.13;99500.59;110939;1208;97777;-66
2023/08/02 05:55:38;;;;;;;7.80;3.10;;;;;;;15.58;99.09;99499.15;111139;1209;97591;-66
2023/08/02 05:58:03;;;;;;;4.70;2.90;;;;;;;15.64;98.94;99493.98;110962;1209;139790;-67
2023/08/02 06:00:29;;;;;;;6.60;3.00;;;;;;;15.68;98.79;99496.70;111056;1208;97589;-67
2023/08/02 06:02:54;;;;;;;8.80;3.30;;;;;;;15.74;98.54;99496.39;110912;1208;139522;-66
2023/08/02 06:05:19;;;;;;;17.80;6.20;;;;;;;15.80;98.45;99492.41;111123;1206;97694;-66
2023/08/02 06:07:45;;;;;;;4.80;3.30;;;;;;;15.88;98.52;99489.92;111065;1206;97646;-65
2023/08/02 06:10:10;;;;;;;9.50;2.80;;;;;;;15.97;98.34;99490.52;110937;1208;138830;-65
2023/08/02 06:12:35;;;;;;;5.20;3.30;;;;;;;16.05;98.27;99501.55;111133;1203;97836;-65
2023/08/02 06:15:00;;;;;;;6.00;2.90;;;;;;;16.11;97.83;99501.52;110823;1212;138423;-66
2023/08/02 06:17:26;;;;;;;5.20;3.00;;;;;;;16.15;97.82;99502.48;111071;1208;99028;-66
2023/08/02 06:19:52;;;;;;;8.70;3.10;;;;;;;16.20;97.55;99504.01;111047;1206;99075;-66
2023/08/02 06:22:17;;;;;;;8.80;3.20;;;;;;;16.23;97.26;99505.72;110920;1225;138619;-67
2023/08/02 06:24:43;;;;;;;12.10;3.70;;;;;;;16.23;97.05;99513.69;111120;1206;99188;-65
2023/08/02 06:27:09;;;;;;;5.90;2.80;;;;;;;16.23;96.73;99511.14;110782;1206;138672;-65
2023/08/02 06:29:37;;;;;;;11.00;3.00;;;;;;;16.23;96.77;99507.94;111115;1206;97745;-65
2023/08/02 06:32:04;;;;;;;4.10;2.50;;;;;;;16.22;96.58;99512.70;111111;1206;97753;-65
2023/08/02 06:34:29;;;;;;;6.20;3.60;;;;;;;16.22;96.31;99509.23;110953;1206;139026;-65
2023/08/02 06:36:54;;;;;;;5.00;3.10;;;;;;;16.24;96.10;99510.70;111099;1208;97611;-65
2023/08/02 06:39:20;;;;;;;7.30;3.10;;;;;;;16.25;95.90;99508.48;110924;1208;139477;-65
2023/08/02 06:41:45;;;;;;;4.70;2.90;;;;;;;16.27;95.65;99509.02;111127;1208;98268;-65
2023/08/02 06:44:10;;;;;;;6.60;3.10;;;;;;;16.32;95.53;99506.46;111026;1206;97702;-65
2023/08/02 06:46:36;;;;;;;7.60;2.80;;;;;;;16.35;95.23;99502.61;110978;1208;139145;-65
2023/08/02 06:49:01;;;;;;;7.00;3.00;;;;;;;16.33;94.98;99499.73;111172;1208;97680;-66
2023/08/02 06:51:26;;;;;;;7.20;2.70;;;;;;;16.27;94.63;99501.25;110819;1209;138376;-65
2023/08/02 06:53:52;;;;;;;5.50;2.70;;;;;;;16.28;94.74;99495.30;111155;1209;97335;-65
2023/08/02 06:56:17;;;;;;;8.40;2.70;;;;;;;16.29;94.67;99494.95;111031;1206;97597;-65
2023/08/02 06:58:44;;;;;;;9.10;3.00;;;;;;;16.32;94.55;99490.73;111031;1209;138516;-65
2023/08/02 07:01:18;;;;;;;6.30;3.20;;;;;;;16.33;94.29;99486.30;111196;1206;97676;-65
2023/08/02 07:03:44;;;;;;;7.30;3.40;;;;;;;16.36;94.09;99487.36;111109;1206;138899;-65
2023/08/02 07:06:14;;;;;;;4.00;3.20;;;;;;;16.36;94.06;99484.61;111047;1206;97652;-65
2023/08/02 07:08:41;;;;;;;6.30;2.80;;;;;;;16.37;94.02;99481.65;111156;1209;97696;-65
2023/08/02 07:11:07;;;;;;;11.40;3.40;;;;;;;16.40;93.77;99480.83;111244;1217;96840;-65
2023/08/02 07:13:33;;;;;;;6.00;3.00;;;;;;;16.43;93.81;99482.75;111162;1206;97749;-65
2023/08/02 07:15:59;;;;;;;6.40;3.30;;;;;;;16.51;93.59;99487.81;111190;1209;139072;-66
2023/08/02 07:18:25;;;;;;;12.20;2.70;;;;;;;16.58;93.46;99489.36;111242;1206;97597;-65
2023/08/02 07:20:50;;;;;;;7.60;3.20;;;;;;;16.66;93.46;99491.84;110979;1209;139913;-65
2023/08/02 07:23:15;;;;;;;7.50;3.30;;;;;;;16.75;93.43;99486.71;111151;1208;98092;-65
2023/08/02 07:25:40;;;;;;;3.40;2.70;;;;;;;16.86;93.30;99480.65;111144;1218;97632;-65
2023/08/02 07:28:06;;;;;;;5.00;2.80;;;;;;;16.92;92.68;99486.64;111153;1203;138876;-65
2023/08/02 07:30:32;;;;;;;7.80;2.90;;;;;;;17.00;92.60;99490.66;111182;1206;98316;-65
2023/08/02 07:32:58;;;;;;;4.20;2.80;;;;;;;17.09;92.30;99487.31;110919;1206;138631;-65
2023/08/02 07:35:23;;;;;;;9.20;3.60;;;;;;;17.17;91.85;99479.65;111277;1206;97587;-65
2023/08/02 07:37:48;;;;;;;6.70;3.10;;;;;;;17.28;91.95;99478.17;111137;1208;97653;-65
2023/08/02 07:40:13;;;;;;;5.60;2.70;;;;;;;17.34;91.24;99479.42;111082;1206;138873;-65
2023/08/02 07:42:39;;;;;;;5.00;2.50;;;;;;;17.33;90.77;99474.30;111299;1206;97562;-65
2023/08/02 07:45:10;;;;;;;6.70;3.10;;;;;;;17.36;90.47;99472.45;111078;1206;139233;-65
2023/08/02 07:47:36;;;;;;;4.70;2.70;;;;;;;17.40;90.56;99469.69;111269;1208;102163;-65
2023/08/02 07:50:02;;;;;;;6.50;2.90;;;;;;;17.51;90.75;99471.05;111264;1206;97745;-65
2023/08/02 07:52:27;;;;;;;5.10;2.60;;;;;;;17.66;90.64;99469.34;111238;1203;139058;-65
2023/08/02 07:54:54;;;;;;;4.00;2.40;;;;;;;17.84;90.47;99472.20;111323;1206;97830;-66
2023/08/02 07:57:25;;;;;;;7.80;2.90;;;;;;;18.01;90.57;99470.65;111108;1209;138957;-65
2023/08/02 07:59:50;;;;;;;;;;;;;;;18.18;90.18;99473.85;111258;1206;98447;-66
2023/08/02 08:02:15;;;;;;;6.80;2.50;;;;;;;18.24;89.61;99471.46;111105;1204;98482;-66
2023/08/02 08:04:41;;;;;;;4.70;3.00;;;;;;;18.30;89.10;99474.38;111040;1206;139258;-64
2023/08/02 08:07:06;;;;;;;6.10;2.20;;;;;;;18.35;89.23;99473.74;111055;1206;97736;-66
2023/08/02 08:09:31;;;;;;;5.30;2.80;;;;;;;18.41;89.07;99474.23;111180;1208;138874;-63
2023/08/02 08:11:57;;;;;;;4.80;2.10;;;;;;;18.37;88.44;99474.23;111077;1208;97595;-66
2023/08/02 08:14:22;;;;;;;5.30;2.50;;;;;;;18.36;88.48;99475.06;111228;1208;97604;-64
2023/08/02 08:16:47;;;;;;;3.60;2.50;;;;;;;18.41;88.46;99478.36;111170;1208;138639;-64
2023/08/02 08:19:13;;;;;;;3.90;2.60;;;;;;;18.39;88.02;99472.23;111154;1208;97309;-63
2023/08/02 08:21:39;;;;;;;5.00;3.00;;;;;;;18.41;87.90;99470.20;111144;1209;139964;-64
2023/08/02 08:24:04;;;;;;;7.40;2.50;;;;;;;18.45;87.60;99471.67;111144;1209;103567;-66
2023/08/02 08:26:29;;;;;;;4.10;2.60;;;;;;;18.49;87.51;99472.90;111179;1208;100014;-64
2023/08/02 08:28:54;;;;;;;6.90;3.00;;;;;;;18.52;87.30;99476.10;111175;1208;139829;-64
2023/08/02 08:31:19;;;;;;;5.80;2.60;;;;;;;18.56;87.50;99472.80;111212;1208;99137;-64
2023/08/02 08:33:45;;;;;;;4.90;2.80;;;;;;;18.66;87.32;99479.64;111175;1209;139187;-64
2023/08/02 08:36:14;;;;;;;8.80;2.60;;;;;;;18.69;86.94;99477.41;111179;1208;97812;-64
2023/08/02 08:38:39;;;;;;;4.30;2.50;;;;;;;18.68;86.61;99481.13;111223;1204;97710;-64
2023/08/02 08:41:06;;;;;;;4.90;3.00;;;;;;;18.63;86.15;99481.99;111083;1206;139129;-64
2023/08/02 08:43:33;;;;;;;6.20;2.80;;;;;;;18.65;85.96;99478.70;111354;1205;96984;-64
2023/08/02 08:45:59;;;;;;;5.80;2.80;;;;;;;18.67;85.50;99472.84;111141;1209;138469;-64
2023/08/02 08:48:26;;;;;;;9.00;2.50;;;;;;;18.69;85.69;99467.09;111250;1208;98774;-64
2023/08/02 08:50:55;;;;;;;8.00;3.20;;;;;;;18.73;85.60;99465.98;111148;1208;139050;-64
2023/08/02 08:53:31;;;;;;;7.70;2.10;;;;;;;18.74;85.49;99466.60;111327;1206;97717;-64
2023/08/02 08:55:57;;;;;;;23.30;3.90;;;;;;;18.78;85.33;99464.05;111211;1208;100609;-64
2023/08/02 08:58:23;;;;;;;6.50;2.60;;;;;;;18.88;85.49;99457.95;111165;1208;139156;-64
2023/08/02 09:00:49;;;;;;;6.50;2.60;;;;;;;18.98;84.88;99451.20;111271;1206;97562;-64
2023/08/02 09:03:15;;;;;;;6.70;2.70;;;;;;;19.00;84.22;99454.27;111160;1209;138668;-64
2023/08/02 09:05:41;;;;;;;6.60;2.50;;;;;;;18.97;83.81;99450.09;111221;1208;97671;-64
2023/08/02 09:08:06;;;;;;;9.80;2.30;;;;;;;19.02;84.03;99450.77;111214;1206;97562;-64
2023/08/02 09:10:34;;;;;;;5.70;2.60;;;;;;;19.24;84.15;99450.34;111145;1205;138287;-64
2023/08/02 09:13:00;;;;;;;7.40;2.10;;;;;;;19.42;83.79;99447.09;111216;1206;103121;-64
2023/08/02 09:15:25;;;;;;;9.30;2.80;;;;;;;19.53;82.57;99449.27;111134;1209;139397;-64
2023/08/02 09:17:52;;;;;;;7.30;2.70;;;;;;;19.42;82.11;99454.16;111316;1206;97709;-64
2023/08/02 09:20:20;;;;;;;5.50;2.50;;;;;;;19.35;82.37;99447.94;111310;1209;97712;-64
2023/08/02 09:22:46;;;;;;;8.70;2.20;;;;;;;19.34;82.07;99448.40;111166;1205;139060;-64
2023/08/02 09:25:25;;;;;;;11.50;2.30;;;;;;;19.35;81.68;99451.73;111262;1215;97626;-64
2023/08/02 09:27:53;;;;;;;6.00;2.10;;;;;;;19.42;81.24;99450.67;111170;1208;139023;-64
2023/08/02 09:30:23;;;;;;;3.80;2.30;;;;;;;19.55;81.41;99449.02;111305;1208;96469;-64
2023/08/02 09:33:01;;;;;;;5.20;2.20;;;;;;;19.80;81.22;99454.55;111174;1209;138660;-64
2023/08/02 09:35:27;;;;;;;8.80;2.30;;;;;;;19.92;80.38;99455.66;111273;1208;102495;-64
2023/08/02 09:37:52;;;;;;;6.50;2.40;;;;;;;19.98;80.15;99450.48;111264;1203;97721;-64
2023/08/02 09:40:17;;;;;;;4.90;2.20;;;;;;;20.06;79.36;99452.17;111133;1208;138575;-64
2023/08/02 09:42:43;;;;;;;5.00;2.00;;;;;;;20.13;78.99;99453.86;111326;1208;97600;-64
2023/08/02 09:45:09;;;;;;;8.40;2.10;;;;;;;20.21;78.71;99454.10;111205;1203;138639;-64
2023/08/02 09:47:34;;;;;;;6.00;2.30;;;;;;;20.30;78.28;99453.54;111270;1203;99333;-64
2023/08/02 09:50:11;;;;;;;5.70;2.10;;;;;;;20.42;78.22;99452.05;111257;1203;97590;-64
2023/08/02 09:52:38;;;;;;;5.50;1.70;;;;;;;20.51;77.82;99452.91;111150;1203;138582;-64
2023/08/02 09:55:04;;;;;;;6.20;2.10;;;;;;;20.57;76.81;99449.32;111252;1208;97813;-64
2023/08/02 09:57:31;;;;;;;3.40;1.90;;;;;;;20.64;76.65;99446.30;111284;1207;139991;-64
2023/08/02 10:00:02;;;;;;;5.30;2.20;;;;;;;20.66;76.31;99441.66;111275;1204;97571;-64
2023/08/02 10:02:29;;;;;;;3.80;1.80;;;;;;;20.66;75.73;99442.46;111436;1203;97693;-65
2023/08/02 10:04:57;;;;;;;4.10;1.60;;;;;;;20.60;75.13;99441.96;111196;1208;138935;-64
2023/08/02 10:07:42;;;;;;;8.90;2.70;;;;;;;20.52;74.67;99437.20;111289;1208;97979;-64
2023/08/02 10:10:24;;;;;;;3.60;1.80;;;;;;;20.45;74.38;99434.83;111157;1208;138651;-64
2023/08/02 10:12:56;;;;;;;4.00;2.10;;;;;;;20.40;74.46;99434.23;111303;1208;99732;-64
2023/08/02 10:15:22;;;;;;;6.30;1.70;;;;;;;20.41;74.13;99422.83;111213;1207;138331;-64
2023/08/02 10:17:48;;;;;;;5.00;1.90;;;;;;;20.49;74.28;99420.84;111334;1208;97673;-64
2023/08/02 10:20:14;;;;;;;6.40;1.80;;;;;;;20.57;73.84;99422.50;111273;1205;97656;-64
2023/08/02 10:22:43;;;;;;;5.30;2.00;;;;;;;20.52;73.22;99421.00;111086;1208;138924;-64
2023/08/02 10:25:10;;;;;;;3.40;1.70;;;;;;;20.48;73.32;99415.15;111227;1206;97658;-64
2023/08/02 10:27:37;;;;;;;5.60;1.80;;;;;;;20.57;73.54;99418.35;111269;1205;139469;-64
2023/08/02 10:30:04;;;;;;;6.70;1.90;;;;;;;20.69;73.40;99413.80;111258;1207;97581;-64
2023/08/02 10:32:29;;;;;;;4.60;1.80;;;;;;;20.80;73.10;99409.02;111304;1208;99022;-64
2023/08/02 10:34:56;;;;;;;9.40;2.10;;;;;;;20.89;72.96;99402.20;111273;1203;139270;-64
2023/08/02 10:37:22;;;;;;;2.80;1.60;;;;;;;20.91;72.32;99397.10;111351;1207;97775;-64
2023/08/02 10:39:47;;;;;;;4.90;1.90;;;;;;;20.91;71.39;99395.23;111219;1208;137690;-64
2023/08/02 10:42:21;;;;;;;4.00;1.40;;;;;;;20.96;72.10;99393.59;111313;1208;97703;-64
2023/08/02 10:44:55;;;;;;;4.40;1.70;;;;;;;21.03;72.08;99391.55;111188;1209;137911;-64
2023/08/02 10:47:28;;;;;;;6.10;2.40;;;;;;;21.13;72.12;99388.00;111257;1203;97600;-64
2023/08/02 10:49:55;;;;;;;20.20;1.90;;;;;;;21.21;71.82;99382.98;111285;1208;103056;-64
2023/08/02 10:52:35;;;;;;;65.50;6.80;;;;;;;21.29;71.65;99379.23;111239;1207;138839;-64
2023/08/02 10:55:08;;;;;;;5.60;2.20;;;;;;;21.39;71.21;99376.82;111326;1218;99355;-64
2023/08/02 10:57:39;;;;;;;10.20;1.60;;;;;;;21.53;71.00;99371.27;111146;1203;138226;-64
2023/08/02 11:00:15;;;;;;;3.60;1.80;;;;;;;21.60;70.38;99363.27;111324;1207;97677;-64
2023/08/02 11:02:46;;;;;;;5.80;1.50;;;;;;;21.65;70.37;99364.13;111245;1209;138227;-64
2023/08/02 11:05:12;;;;;;;4.30;1.30;;;;;;;21.76;70.38;99362.81;111277;1223;97559;-64
2023/08/02 11:07:38;;;;;;;6.60;1.40;;;;;;;21.84;69.64;99360.80;111417;1208;97818;-64
2023/08/02 11:10:06;;;;;;;6.00;1.60;;;;;;;21.84;69.31;99360.33;111234;1207;138444;-64
2023/08/02 11:12:33;;;;;;;4.80;1.40;;;;;;;21.80;68.98;99359.64;111290;1208;103091;-64